Time;durP1;ratioP1;P1;durP2;ratioP2;P2;SDS_P1;SDS_P2;PMS_P1;PMS_P2;Temp;Humidity;BMP_temperature;BMP_pressure;BME280_temperature;BME280_humidity;BME280_pressure;Samples;Min_cycle;Max_cycle;Signal;HPM_P1;HPM_P2
2020/12/03 00:01:12;;;;;;;56.05;19.90;;;;;;;-5.29;85.94;99595.08;1812681;79;21249;-82
2020/12/03 00:03:52;;;;;;;50.58;16.40;;;;;;;-5.30;86.05;99583.59;1810774;78;21316;-80
2020/12/03 00:06:33;;;;;;;65.08;20.55;;;;;;;-5.30;86.05;99583.59;1813782;79;21261;-81
2020/12/03 00:09:08;;;;;;;60.95;21.20;;;;;;;-5.36;85.55;99585.44;1738165;80;21304;-79
2020/12/03 00:11:41;;;;;;;73.12;21.15;;;;;;;-5.37;84.98;99585.36;1748763;82;21309;-79
2020/12/03 00:14:17;;;;;;;75.10;20.95;;;;;;;-5.42;84.79;99589.82;1766162;79;23642;-79
2020/12/03 00:16:48;;;;;;;61.10;20.17;;;;;;;-5.47;84.75;99590.03;1737948;82;21684;-80
2020/12/03 00:19:20;;;;;;;58.63;19.55;;;;;;;-5.52;84.87;99589.34;1744425;82;21973;-81
2020/12/03 00:21:52;;;;;;;58.08;18.70;;;;;;;-5.60;84.83;99588.56;1741051;82;21284;-80
2020/12/03 00:24:24;;;;;;;73.83;21.17;;;;;;;-5.54;84.98;99609.94;1736735;82;21138;-80
2020/12/03 00:26:53;;;;;;;58.08;19.77;;;;;;;-5.58;84.85;99606.38;1742695;82;21173;-81
2020/12/03 00:29:21;;;;;;;59.85;21.65;;;;;;;-5.60;84.93;99603.77;1747308;82;21174;-80
2020/12/03 00:31:51;;;;;;;77.35;20.55;;;;;;;-5.69;85.23;99598.28;1738611;82;21276;-81
2020/12/03 00:34:18;;;;;;;56.25;19.73;;;;;;;-5.61;85.01;99603.69;1750535;82;21550;-83
2020/12/03 00:36:45;;;;;;;51.95;17.98;;;;;;;-5.64;85.32;99606.09;1742960;82;21300;-81
2020/12/03 00:39:15;;;;;;;62.55;18.70;;;;;;;-5.66;85.86;99606.02;1746318;82;21165;-82
2020/12/03 00:41:52;;;;;;;62.73;20.68;;;;;;;-5.55;85.14;99616.67;1753390;82;21280;-82
2020/12/03 00:44:21;;;;;;;54.42;17.27;;;;;;;-5.55;85.14;99616.67;1754643;82;21384;-81
2020/12/03 00:46:49;;;;;;;53.20;16.40;;;;;;;-5.53;86.30;99616.72;1741689;82;21245;-82
2020/12/03 00:49:18;;;;;;;48.75;16.05;;;;;;;-5.53;86.30;99616.72;1748358;82;21225;-82
2020/12/03 00:51:51;;;;;;;38.00;15.43;;;;;;;-5.48;86.11;99608.55;1741121;82;21276;-81
2020/12/03 00:54:20;;;;;;;54.13;18.82;;;;;;;-5.44;86.00;99620.56;1754702;82;21288;-81
2020/12/03 00:56:50;;;;;;;67.27;20.80;;;;;;;-5.39;85.95;99634.73;1714372;82;21323;-80
2020/12/03 00:59:18;;;;;;;48.20;15.53;;;;;;;-5.39;85.95;99634.73;1737829;82;21261;-81
2020/12/03 01:01:45;;;;;;;30.45;13.38;;;;;;;-5.35;86.00;99624.31;1731494;82;21216;-82
2020/12/03 01:04:12;;;;;;;65.52;19.65;;;;;;;-5.34;85.77;99623.53;1748015;81;21145;-82
2020/12/03 01:06:40;;;;;;;49.90;15.80;;;;;;;-5.30;85.60;99625.41;1750161;82;21292;-82
2020/12/03 01:09:07;;;;;;;48.65;18.00;;;;;;;-5.35;85.98;99612.54;1748445;82;21158;-81
2020/12/03 01:11:35;;;;;;;47.85;15.70;;;;;;;-5.35;85.98;99612.54;1730153;82;21252;-83
2020/12/03 01:14:02;;;;;;;56.37;16.62;;;;;;;-5.29;85.97;99616.99;1732155;82;21188;-82
2020/12/03 01:16:29;;;;;;;49.25;16.90;;;;;;;-5.28;86.30;99616.21;1739742;82;21258;-82
2020/12/03 01:18:57;;;;;;;53.33;17.57;;;;;;;-5.29;86.11;99610.66;1735325;82;21261;-83
2020/12/03 01:21:24;;;;;;;49.23;15.65;;;;;;;-5.35;86.49;99606.20;1721147;82;21225;-81
2020/12/03 01:23:52;;;;;;;45.08;14.80;;;;;;;-5.35;86.47;99608.73;1719168;82;21277;-84
2020/12/03 01:26:20;;;;;;;39.10;13.58;;;;;;;-5.35;86.34;99596.44;1733506;82;21265;-82
2020/12/03 01:28:48;;;;;;;53.78;16.65;;;;;;;-5.33;86.10;99589.77;1722178;82;21262;-81
2020/12/03 01:31:16;;;;;;;50.48;16.60;;;;;;;-5.38;86.41;99592.11;1723617;82;21237;-82
2020/12/03 01:33:44;;;;;;;43.70;15.10;;;;;;;-5.39;85.90;99589.12;1728216;82;21208;-82
2020/12/03 01:36:15;;;;;;;43.25;14.30;;;;;;;-5.48;85.89;99600.94;1741342;82;21740;-81
2020/12/03 01:38:43;;;;;;;45.43;15.35;;;;;;;-5.48;85.89;99600.94;1725429;81;21301;-81
2020/12/03 01:41:11;;;;;;;44.25;13.55;;;;;;;-5.51;86.68;99599.92;1721129;81;21309;-82
2020/12/03 01:43:43;;;;;;;49.23;15.28;;;;;;;-5.50;86.57;99606.34;1742704;82;21278;-82
2020/12/03 01:46:11;;;;;;;46.95;15.48;;;;;;;-5.49;86.66;99603.02;1735064;78;21309;-82
2020/12/03 01:48:46;;;;;;;46.30;14.10;;;;;;;-5.52;86.44;99598.20;1728960;81;21285;-81
2020/12/03 01:51:25;;;;;;;49.70;15.63;;;;;;;-5.57;86.44;99592.94;1723972;79;21296;-82
2020/12/03 01:53:57;;;;;;;50.20;16.87;;;;;;;-5.57;86.11;99596.73;1728780;82;21289;-81
2020/12/03 01:56:58;;;;;;;59.77;17.62;;;;;;;-5.57;86.11;99596.73;1734632;80;21711;-82
2020/12/03 01:59:43;;;;;;;53.95;16.93;;;;;;;-5.58;86.20;99586.52;1716498;82;21320;-83
2020/12/03 02:02:14;;;;;;;49.93;15.83;;;;;;;-5.65;87.37;99593.83;1718686;82;21115;-83
2020/12/03 02:04:42;;;;;;;63.40;17.27;;;;;;;-5.56;86.90;99596.33;1741648;78;21297;-82
2020/12/03 02:07:13;;;;;;;47.80;15.80;;;;;;;-5.58;87.69;99596.66;1743573;78;21281;-82
2020/12/03 02:09:40;;;;;;;46.30;16.42;;;;;;;-5.50;86.96;99578.47;1741693;81;21242;-81
2020/12/03 02:12:08;;;;;;;58.95;17.27;;;;;;;-5.54;87.01;99563.92;1724860;82;21288;-81
2020/12/03 02:14:35;;;;;;;52.00;16.35;;;;;;;-5.37;86.47;99573.96;1733019;82;21253;-81
2020/12/03 02:17:02;;;;;;;45.35;15.63;;;;;;;-5.37;86.47;99573.96;1741548;81;21299;-81
2020/12/03 02:19:32;;;;;;;50.73;17.05;;;;;;;-5.32;86.60;99577.59;1750152;82;21292;-82
2020/12/03 02:22:09;;;;;;;42.53;15.53;;;;;;;-5.27;86.47;99582.45;1732668;82;21305;-81
2020/12/03 02:24:40;;;;;;;42.17;15.25;;;;;;;-5.17;86.30;99588.81;1750474;80;21229;-81
2020/12/03 02:27:12;;;;;;;44.33;12.85;;;;;;;-5.19;85.99;99567.22;1738434;79;21539;-83
2020/12/03 02:29:39;;;;;;;53.80;14.85;;;;;;;-5.15;85.64;99572.00;1740858;82;21289;-81
2020/12/03 02:32:08;;;;;;;56.20;18.70;;;;;;;-5.16;85.84;99569.88;1746334;82;22444;-81
2020/12/03 02:34:36;;;;;;;57.78;15.75;;;;;;;-5.16;85.84;99569.88;1741091;82;21253;-81
2020/12/03 02:37:04;;;;;;;54.13;15.32;;;;;;;-5.16;85.54;99566.07;1740223;81;21308;-81
2020/12/03 02:39:35;;;;;;;56.90;16.07;;;;;;;-5.19;85.66;99560.88;1728358;82;21328;-80
2020/12/03 02:42:09;;;;;;;46.10;14.87;;;;;;;-5.10;85.65;99566.75;1751391;82;21288;-82
2020/12/03 02:44:44;;;;;;;39.00;14.25;;;;;;;-5.08;85.54;99567.28;1749309;82;21268;-79
2020/12/03 02:47:17;;;;;;;44.08;13.62;;;;;;;-5.01;85.49;99569.30;1745114;82;21225;-82
2020/12/03 02:49:45;;;;;;;49.67;16.20;;;;;;;-4.99;85.33;99566.84;1742464;82;21110;-81
2020/12/03 02:52:18;;;;;;;51.28;14.70;;;;;;;-4.96;85.15;99568.63;1746576;82;21295;-81
2020/12/03 02:54:46;;;;;;;49.15;13.32;;;;;;;-5.04;85.23;99564.48;1742360;82;21225;-82
2020/12/03 02:57:14;;;;;;;49.13;14.28;;;;;;;-5.02;85.13;99565.02;1739059;82;21320;-82
2020/12/03 02:59:41;;;;;;;54.42;15.13;;;;;;;-4.94;85.23;99567.03;1744888;82;21304;-80
2020/12/03 03:02:09;;;;;;;47.60;15.70;;;;;;;-4.89;85.11;99560.51;1743623;82;21264;-83
2020/12/03 03:04:37;;;;;;;59.38;16.67;;;;;;;-4.89;84.96;99563.91;1728631;82;21265;-82
2020/12/03 03:07:05;;;;;;;58.42;17.30;;;;;;;-4.92;84.73;99551.48;1752030;82;21134;-82
2020/12/03 03:09:32;;;;;;;56.65;16.95;;;;;;;-4.91;84.81;99556.63;1736068;82;21229;-81
2020/12/03 03:12:00;;;;;;;49.65;15.63;;;;;;;-4.84;84.61;99558.61;1732382;82;21319;-81
2020/12/03 03:14:28;;;;;;;45.65;14.90;;;;;;;-4.87;84.69;99551.30;1744466;82;21316;-81
2020/12/03 03:16:55;;;;;;;60.98;16.75;;;;;;;-4.89;84.96;99547.42;1754632;82;21276;-81
2020/12/03 03:19:23;;;;;;;54.67;16.80;;;;;;;-4.77;84.79;99550.89;1755950;82;21261;-82
2020/12/03 03:21:51;;;;;;;52.78;15.65;;;;;;;-4.84;84.55;99548.88;1755926;82;21248;-80
2020/12/03 03:24:19;;;;;;;35.38;13.53;;;;;;;-4.84;84.55;99548.88;1732006;82;21167;-81
2020/12/03 03:26:47;;;;;;;46.88;15.48;;;;;;;-4.92;84.53;99546.41;1742173;82;21296;-82
2020/12/03 03:29:15;;;;;;;43.87;15.43;;;;;;;-4.92;84.55;99538.39;1737447;82;21260;-81
2020/12/03 03:31:43;;;;;;;49.53;15.10;;;;;;;-4.88;84.61;99532.65;1746970;82;21147;-81
2020/12/03 03:34:10;;;;;;;44.53;14.83;;;;;;;-4.90;84.53;99531.72;1728869;80;21318;-82
2020/12/03 03:36:37;;;;;;;51.15;18.32;;;;;;;-5.05;84.43;99530.66;1734513;82;21279;-82
2020/12/03 03:39:07;;;;;;;43.68;14.38;;;;;;;-5.05;84.43;99530.66;1734948;82;21327;-81
2020/12/03 03:41:35;;;;;;;50.33;16.40;;;;;;;-5.13;84.57;99535.80;1739533;82;21226;-82
2020/12/03 03:44:02;;;;;;;64.47;18.60;;;;;;;-5.23;85.57;99539.99;1727352;83;21317;-81
2020/12/03 03:46:30;;;;;;;53.55;15.53;;;;;;;-5.22;85.74;99531.58;1738405;80;21296;-82
2020/12/03 03:48:59;;;;;;;51.42;16.93;;;;;;;-5.20;85.59;99533.78;1749084;82;21295;-82
2020/12/03 03:51:26;;;;;;;38.50;14.98;;;;;;;-5.25;85.58;99531.05;1740593;82;21284;-81
2020/12/03 03:53:53;;;;;;;56.10;16.65;;;;;;;-5.25;85.58;99531.05;1742872;82;21295;-82
2020/12/03 03:56:21;;;;;;;41.88;13.62;;;;;;;-5.22;85.24;99525.23;1738136;82;21323;-82
2020/12/03 03:58:48;;;;;;;55.73;16.40;;;;;;;-5.24;85.30;99528.11;1743700;82;21245;-82
2020/12/03 04:01:17;;;;;;;50.52;17.12;;;;;;;-5.27;85.11;99528.84;1750255;82;21303;-81
2020/12/03 04:03:44;;;;;;;38.10;13.60;;;;;;;-5.35;85.28;99528.91;1736713;82;21271;-81
2020/12/03 04:06:11;;;;;;;49.45;16.50;;;;;;;-5.35;85.28;99528.91;1742313;82;21232;-81
2020/12/03 04:08:39;;;;;;;49.42;15.63;;;;;;;-5.35;85.20;99524.21;1733589;79;21543;-82
2020/12/03 04:11:06;;;;;;;51.37;17.17;;;;;;;-5.34;85.24;99517.95;1735083;79;21257;-81
2020/12/03 04:13:33;;;;;;;44.38;14.33;;;;;;;-5.34;85.39;99509.48;1732517;80;21273;-81
2020/12/03 04:16:01;;;;;;;46.85;13.85;;;;;;;-5.32;85.31;99507.48;1724843;82;21226;-82
2020/12/03 04:18:28;;;;;;;45.63;14.78;;;;;;;-5.30;85.44;99513.48;1730118;82;21317;-82
2020/12/03 04:21:01;;;;;;;43.40;14.45;;;;;;;-5.30;85.44;99513.48;1740425;82;21294;-82
2020/12/03 04:23:28;;;;;;;37.03;11.45;;;;;;;-5.28;85.52;99511.03;1724875;82;21315;-82
2020/12/03 04:25:56;;;;;;;45.03;16.52;;;;;;;-5.25;85.26;99510.77;1732167;82;21795;-81
2020/12/03 04:28:24;;;;;;;47.03;15.98;;;;;;;-5.28;85.18;99503.42;1722700;82;21269;-81
2020/12/03 04:30:51;;;;;;;42.93;15.45;;;;;;;-5.26;85.46;99500.56;1720575;82;21249;-81
2020/12/03 04:33:19;;;;;;;100.75;25.62;;;;;;;-5.29;85.43;99501.30;1730458;82;21360;-80
2020/12/03 04:35:47;;;;;;;46.70;16.32;;;;;;;-5.24;85.37;99504.88;1722087;82;21153;-81
2020/12/03 04:38:16;;;;;;;47.30;15.60;;;;;;;-5.13;85.39;99509.18;1726863;82;21292;-78
2020/12/03 04:40:46;;;;;;;47.48;16.07;;;;;;;-5.13;85.39;99509.18;1725346;82;21328;-81
2020/12/03 04:43:33;;;;;;;42.83;14.05;;;;;;;-5.20;84.76;99513.50;1727276;78;21276;-82
2020/12/03 04:46:28;;;;;;;31.68;12.25;;;;;;;-5.29;85.02;99508.90;1729074;82;21233;-82
2020/12/03 04:49:37;;;;;;;42.70;13.78;;;;;;;-5.19;84.79;99516.52;1767781;78;23679;-80
2020/12/03 04:52:59;;;;;;;44.00;16.52;;;;;;;-5.33;84.90;99493.09;1753004;82;21233;-80
2020/12/03 04:55:55;;;;;;;39.70;13.95;;;;;;;-5.33;84.90;99493.09;1748577;82;21241;-81
2020/12/03 04:58:37;;;;;;;38.88;13.85;;;;;;;-5.44;84.89;99487.94;1740838;79;21272;-81
2020/12/03 05:01:26;;;;;;;43.83;12.80;;;;;;;-5.42;84.88;99510.00;1686604;84;21275;-82
2020/12/03 05:04:05;;;;;;;37.13;13.40;;;;;;;-5.52;85.13;99491.39;1700080;84;21517;-80
2020/12/03 05:06:40;;;;;;;41.70;13.50;;;;;;;-5.52;85.98;99503.20;1700697;84;21576;-82
2020/12/03 05:09:19;;;;;;;43.95;14.43;;;;;;;-5.52;85.98;99503.20;1702035;81;21347;-80
2020/12/03 05:11:57;;;;;;;31.10;11.08;;;;;;;-5.57;86.03;99489.06;1692486;81;21184;-82
2020/12/03 05:14:50;;;;;;;38.35;13.00;;;;;;;-5.48;86.17;99498.73;1700691;84;21241;-82
2020/12/03 05:17:38;;;;;;;41.00;15.35;;;;;;;-5.48;86.17;99498.73;1693807;84;21243;-82
2020/12/03 05:20:35;;;;;;;43.60;15.88;;;;;;;-5.50;85.64;99492.73;1699586;82;21295;-81
2020/12/03 05:23:11;;;;;;;40.88;15.25;;;;;;;-5.53;86.03;99495.11;1694092;84;21181;-81
2020/12/03 05:25:38;;;;;;;44.93;18.00;;;;;;;-5.58;85.96;99495.31;1697469;84;21165;-80
2020/12/03 05:28:23;;;;;;;42.25;14.85;;;;;;;-5.61;85.88;99485.89;1702559;84;21272;-81
2020/12/03 05:30:55;;;;;;;50.20;17.75;;;;;;;-5.63;85.85;99498.52;1736594;82;21272;-81
2020/12/03 05:33:23;;;;;;;59.95;17.27;;;;;;;-5.63;85.34;99498.88;1738924;79;21250;-82
2020/12/03 05:35:51;;;;;;;47.35;16.87;;;;;;;-5.64;85.09;99495.91;1729131;79;21177;-82
2020/12/03 05:38:22;;;;;;;46.25;17.00;;;;;;;-5.63;84.89;99496.35;1746789;82;21280;-81
2020/12/03 05:41:05;;;;;;;55.40;17.90;;;;;;;-5.70;84.85;99511.68;1737245;82;21281;-82
2020/12/03 05:43:33;;;;;;;38.40;14.23;;;;;;;-5.73;85.35;99499.27;1738225;82;21631;-81
2020/12/03 05:46:04;;;;;;;44.00;15.55;;;;;;;-5.76;85.93;99494.94;1741771;82;21249;-82
2020/12/03 05:48:31;;;;;;;49.95;17.10;;;;;;;-5.68;85.28;99482.22;1717549;82;21269;-79
2020/12/03 05:51:03;;;;;;;48.92;16.55;;;;;;;-5.69;85.64;99490.64;1721217;83;21278;-81
2020/12/03 05:53:30;;;;;;;58.87;18.65;;;;;;;-5.69;85.64;99490.64;1729242;82;21257;-81
2020/12/03 05:56:17;;;;;;;46.55;16.20;;;;;;;-5.62;85.16;99493.90;1753395;82;21130;-82
2020/12/03 05:58:44;;;;;;;49.38;18.02;;;;;;;-5.48;85.20;99505.06;1747333;78;21130;-82
2020/12/03 06:01:19;;;;;;;46.70;14.95;;;;;;;-5.48;85.20;99505.06;1755469;77;21256;-81
2020/12/03 06:04:25;;;;;;;40.63;14.75;;;;;;;-5.54;85.56;99495.52;1758025;80;21233;-83
2020/12/03 06:07:13;;;;;;;50.58;19.00;;;;;;;-5.57;85.69;99495.39;1757645;77;21380;-84
2020/12/03 06:10:08;;;;;;;49.93;15.20;;;;;;;-5.47;85.17;99508.94;1747123;77;21323;-82
2020/12/03 06:13:01;;;;;;;76.92;27.55;;;;;;;-5.49;85.29;99502.05;1742970;81;21291;-83
2020/12/03 06:15:49;;;;;;;46.53;17.65;;;;;;;-5.44;85.85;99493.00;1743552;82;21335;-83
2020/12/03 06:18:41;;;;;;;43.63;14.95;;;;;;;-5.38;85.57;99505.09;1742633;82;21275;-83
2020/12/03 06:21:35;;;;;;;40.67;14.47;;;;;;;-5.48;85.35;99509.73;1743832;80;21290;-84
2020/12/03 06:27:22;;;;;;;48.38;16.70;;;;;;;-5.39;85.08;99504.23;1771847;78;21221;-82
2020/12/03 06:30:23;;;;;;;40.08;13.90;;;;;;;-5.35;84.81;99512.80;1730420;81;21306;-83
2020/12/03 06:33:08;;;;;;;39.55;15.85;;;;;;;-5.41;84.67;99498.22;1746708;78;21312;-81
2020/12/03 06:39:03;;;;;;;41.68;14.85;;;;;;;-5.33;85.00;99495.63;1742445;78;21205;-83
2020/12/03 06:42:09;;;;;;;48.52;17.07;;;;;;;-5.33;85.00;99495.63;1719405;80;21441;-83
2020/12/03 06:44:58;;;;;;;60.80;20.82;;;;;;;-5.29;85.17;99497.87;1760105;81;21542;-83
2020/12/03 06:47:40;;;;;;;50.73;16.95;;;;;;;-5.27;84.83;99481.95;1711036;84;21316;-82
2020/12/03 06:53:37;;;;;;;55.23;17.02;;;;;;;-5.27;86.06;99472.19;1735366;79;21193;-83
2020/12/03 06:59:50;;;;;;;45.48;15.23;;;;;;;-5.35;85.41;99446.54;1709884;82;21302;-85
2020/12/03 07:02:47;;;;;;;49.55;16.82;;;;;;;-5.24;84.67;99475.73;1710042;80;21148;31
2020/12/03 07:05:44;;;;;;;40.58;15.48;;;;;;;-5.17;83.98;99476.89;1739806;80;21339;-82
2020/12/03 07:57:57;;;;;;;60.75;18.67;;;;;;;-4.74;84.49;99457.14;1766167;78;21206;-83
2020/12/03 08:12:02;;;;;;;51.80;18.23;;;;;;;-4.52;83.53;99439.86;1805534;75;22669;31
2020/12/03 08:20:44;;;;;;;;;;;;;;;-4.42;83.70;99430.56;1771538;78;21241;-84
2020/12/03 08:23:21;;;;;;;64.10;19.87;;;;;;;-4.30;84.09;99440.31;1740504;78;20226;-78
2020/12/03 08:25:51;;;;;;;55.85;19.50;;;;;;;-4.15;83.64;99445.55;1748980;78;21218;31
2020/12/03 08:28:40;;;;;;;51.47;18.00;;;;;;;-4.15;83.64;99445.55;1776712;78;21349;31
2020/12/03 08:31:07;;;;;;;88.30;31.97;;;;;;;-4.10;83.41;99443.66;1796581;78;21105;-82
2020/12/03 08:33:41;;;;;;;58.58;21.45;;;;;;;-4.05;83.49;99428.59;1742926;78;21156;31
2020/12/03 08:36:12;;;;;;;56.58;19.60;;;;;;;-3.91;82.96;99421.09;1727780;79;21328;31
2020/12/03 08:38:41;;;;;;;58.58;20.97;;;;;;;-3.91;82.96;99421.09;1670921;83;21611;-82
2020/12/03 08:44:40;;;;;;;67.03;21.95;;;;;;;-3.71;83.18;99414.63;1740868;79;21145;-82
2020/12/03 08:47:13;;;;;;;64.22;19.92;;;;;;;-3.72;82.59;99407.41;1653509;83;21311;-82
2020/12/03 08:49:44;;;;;;;48.83;18.05;;;;;;;-3.71;82.66;99401.50;1650067;81;21313;-82
2020/12/03 08:52:32;;;;;;;49.05;17.52;;;;;;;-3.68;82.74;99398.20;1754955;79;21240;31
2020/12/03 08:55:07;;;;;;;58.35;19.57;;;;;;;-3.66;82.82;99391.12;1764078;80;21247;-80
2020/12/03 08:57:41;;;;;;;55.33;17.80;;;;;;;-3.56;82.89;99400.33;1740686;79;21342;-82
2020/12/03 09:00:13;;;;;;;59.63;17.73;;;;;;;-3.51;82.77;99406.45;1729483;80;21271;-82
2020/12/03 09:02:56;;;;;;;66.33;21.27;;;;;;;-3.42;82.90;99398.75;1713570;79;21231;31
2020/12/03 09:05:44;;;;;;;51.00;19.60;;;;;;;-3.41;82.85;99395.80;1735397;79;21297;31
2020/12/03 09:11:14;;;;;;;56.80;16.75;;;;;;;-3.21;83.14;99390.99;1737409;78;21189;31
2020/12/03 09:20:06;;;;;;;49.80;18.02;;;;;;;-2.97;82.37;99373.98;1706719;77;21220;31
2020/12/03 09:26:02;;;;;;;48.53;16.87;;;;;;;-2.84;81.45;99371.04;1720486;78;21644;-80
2020/12/03 09:28:30;;;;;;;54.08;18.85;;;;;;;-2.78;81.44;99362.75;1761556;80;21280;-83
2020/12/03 09:37:28;;;;;;;57.70;19.43;;;;;;;-2.55;81.23;99354.55;1731990;79;22411;31
2020/12/03 10:06:28;;;;;;;57.27;21.80;;;;;;;-1.69;80.06;99297.19;1726585;78;21562;31
2020/12/03 10:35:49;;;;;;;55.25;22.35;;;;;;;-0.43;77.98;99253.05;1748011;78;22673;-74
2020/12/03 10:54:05;;;;;;;52.73;21.27;;;;;;;0.26;77.25;99216.09;1753710;78;21192;-85
2020/12/03 10:59:41;;;;;;;55.88;22.22;;;;;;;0.54;76.28;99206.34;1753916;78;21221;-88
2020/12/03 11:15:12;;;;;;;46.48;18.35;;;;;;;1.25;75.10;99178.82;1800136;78;22930;-87
2020/12/03 11:18:02;;;;;;;56.00;20.80;;;;;;;1.28;75.32;99171.63;1777722;79;21279;-88
2020/12/03 11:20:34;;;;;;;52.50;19.98;;;;;;;1.29;74.66;99169.06;1652183;85;21251;-88
2020/12/03 11:23:27;;;;;;;53.05;18.75;;;;;;;1.37;75.34;99160.20;1677813;81;21335;-89
2020/12/03 11:28:45;;;;;;;52.15;20.80;;;;;;;1.57;74.83;99166.84;1711069;82;21689;-93
2020/12/03 11:31:14;;;;;;;58.58;21.23;;;;;;;1.63;73.62;99162.22;1689770;83;21645;-90
2020/12/03 11:33:49;;;;;;;50.75;19.80;;;;;;;1.74;72.70;99163.22;1678177;82;21206;-90
2020/12/03 11:36:18;;;;;;;50.60;19.30;;;;;;;1.90;73.77;99165.53;1706123;82;21125;-91
2020/12/03 11:38:54;;;;;;;44.95;19.23;;;;;;;2.02;72.13;99155.83;1724812;81;21320;-91
2020/12/03 11:41:29;;;;;;;47.88;20.05;;;;;;;2.21;71.96;99160.70;1720562;81;21170;-90
2020/12/03 11:44:22;;;;;;;46.68;20.65;;;;;;;2.34;70.86;99157.41;1688019;83;21272;-90
2020/12/03 11:49:29;;;;;;;52.70;21.52;;;;;;;2.68;72.51;99148.71;1663417;85;21210;-92
2020/12/03 11:52:19;;;;;;;56.80;22.13;;;;;;;2.87;71.34;99149.28;1663614;82;21360;-91
2020/12/03 11:54:47;;;;;;;54.45;23.07;;;;;;;3.22;72.00;99145.20;1656370;86;21200;-90
2020/12/03 11:57:15;;;;;;;53.83;22.25;;;;;;;3.64;67.40;99136.84;1705410;82;21297;-91
2020/12/03 11:59:44;;;;;;;57.05;23.22;;;;;;;3.88;66.62;99121.02;1741319;80;21136;-93
2020/12/03 12:02:11;;;;;;;52.53;22.82;;;;;;;4.16;67.80;99115.09;1710833;83;21215;-94
2020/12/03 12:04:57;;;;;;;47.35;22.58;;;;;;;4.50;64.15;99110.39;1722457;82;21141;-92
2020/12/03 12:12:23;;;;;;;45.28;20.77;;;;;;;4.99;64.61;99099.99;1695540;82;21551;-92
2020/12/03 12:14:50;;;;;;;54.23;23.30;;;;;;;5.05;66.96;99100.41;1749180;79;21185;-93
2020/12/03 12:17:19;;;;;;;52.75;22.65;;;;;;;4.96;63.42;99104.73;1775230;79;21170;-93
2020/12/03 12:19:49;;;;;;;45.55;20.10;;;;;;;4.98;63.23;99102.16;1699064;79;21581;-92
2020/12/03 12:22:16;;;;;;;53.68;23.07;;;;;;;4.89;63.55;99097.86;1692775;79;21164;-92
2020/12/03 12:24:45;;;;;;;51.65;22.73;;;;;;;4.93;62.41;99100.01;1738483;81;21629;-92
2020/12/03 12:27:14;;;;;;;46.58;21.25;;;;;;;5.00;65.06;99096.57;1709428;79;21197;-88
2020/12/03 12:29:42;;;;;;;65.75;25.23;;;;;;;4.95;63.97;99100.45;1711631;81;21134;-91
2020/12/03 12:32:10;;;;;;;52.90;22.07;;;;;;;4.92;66.97;99087.56;1705300;82;21318;-91
2020/12/03 12:34:37;;;;;;;54.20;24.37;;;;;;;4.72;64.91;99093.20;1708799;82;21171;-92
2020/12/03 12:37:04;;;;;;;44.63;21.50;;;;;;;4.60;62.92;99088.07;1715682;82;21135;-91
2020/12/03 12:39:32;;;;;;;52.85;20.82;;;;;;;4.54;65.86;99084.63;1719269;82;21567;-92
2020/12/03 12:42:07;;;;;;;57.45;22.52;;;;;;;4.36;63.32;99078.22;1675734;81;21715;-92
2020/12/03 12:44:35;;;;;;;51.95;20.95;;;;;;;4.15;62.38;99078.62;1677262;82;21881;-91
2020/12/03 12:47:04;;;;;;;45.67;20.12;;;;;;;4.09;64.36;99077.33;1678468;83;21194;-91
2020/12/03 12:49:33;;;;;;;54.10;22.10;;;;;;;4.03;65.14;99074.75;1653366;84;21234;-95
2020/12/03 12:52:00;;;;;;;61.10;24.52;;;;;;;3.98;65.04;99088.06;1633775;87;21201;-93
2020/12/03 12:54:27;;;;;;;61.80;25.85;;;;;;;3.93;65.34;99080.31;1658263;86;21155;-94
2020/12/03 12:56:56;;;;;;;59.53;25.12;;;;;;;3.85;65.42;99062.73;1686724;85;21185;-93
2020/12/03 12:59:23;;;;;;;68.60;27.30;;;;;;;3.76;65.22;99061.02;1664872;84;21175;-92
2020/12/03 13:01:52;;;;;;;80.30;29.30;;;;;;;3.75;65.68;99059.28;1641134;84;21643;-91
2020/12/03 13:04:20;;;;;;;87.80;33.90;;;;;;;3.68;65.91;99051.14;1629254;86;21498;-91
2020/12/03 13:06:49;;;;;;;79.50;29.72;;;;;;;3.76;66.46;99058.84;1684136;82;21330;-91
2020/12/03 13:09:16;;;;;;;72.40;27.95;;;;;;;3.74;65.39;99056.70;1687160;82;21211;-91
2020/12/03 13:11:46;;;;;;;71.75;27.73;;;;;;;3.75;65.16;99052.00;1690913;83;21151;-93
2020/12/03 13:14:13;;;;;;;72.15;27.20;;;;;;;3.77;65.69;99058.86;1688807;84;21500;-92
2020/12/03 13:16:42;;;;;;;74.00;26.87;;;;;;;3.77;65.53;99056.28;1688698;84;21170;-89
2020/12/03 13:19:10;;;;;;;72.10;27.15;;;;;;;3.70;65.80;99055.86;1708357;82;21166;-87
2020/12/03 13:21:40;;;;;;;74.07;26.52;;;;;;;3.65;65.55;99049.84;1735603;82;21120;-91
2020/12/03 13:24:07;;;;;;;74.00;29.02;;;;;;;3.61;65.78;99048.55;1663674;81;21144;-92
2020/12/03 13:26:35;;;;;;;69.70;28.17;;;;;;;3.58;66.29;99054.52;1649289;86;21163;-93
2020/12/03 13:29:02;;;;;;;71.20;28.77;;;;;;;3.54;66.83;99051.52;1709322;82;21140;-90
2020/12/03 13:31:31;;;;;;;76.22;29.40;;;;;;;3.47;66.75;99052.38;1712845;82;21291;-90
2020/12/03 13:33:59;;;;;;;83.33;32.25;;;;;;;3.41;66.62;99048.50;1678204;81;21694;-92
2020/12/03 13:36:27;;;;;;;79.77;31.75;;;;;;;3.35;66.89;99047.62;1696818;82;21173;-92
2020/12/03 13:38:55;;;;;;;75.97;28.62;;;;;;;3.31;67.20;99034.77;1688579;84;21192;-91
2020/12/03 13:41:23;;;;;;;90.57;33.53;;;;;;;3.25;67.40;99027.89;1694024;83;21158;-91
2020/12/03 13:43:50;;;;;;;82.10;32.20;;;;;;;3.20;67.61;99038.56;1693791;84;21186;-90
2020/12/03 13:46:18;;;;;;;108.70;41.48;;;;;;;3.16;68.03;99041.98;1697424;84;21197;-92
2020/12/03 13:48:46;;;;;;;88.67;35.15;;;;;;;2.82;68.29;98992.19;1691026;82;21192;-91
2020/12/03 13:51:14;;;;;;;90.57;38.15;;;;;;;2.95;68.12;99024.35;1689262;83;21178;-89
2020/12/03 13:53:43;;;;;;;104.03;36.05;;;;;;;2.90;68.97;99032.45;1672822;83;21169;-91
2020/12/03 13:56:14;;;;;;;143.72;55.58;;;;;;;2.85;69.26;99029.02;1700880;81;21156;-90
2020/12/03 13:58:42;;;;;;;113.37;43.85;;;;;;;2.87;70.37;99029.88;1687632;84;21171;-91
2020/12/03 14:01:10;;;;;;;83.05;35.13;;;;;;;2.90;70.41;99031.59;1663535;84;21219;-91
2020/12/03 14:03:37;;;;;;;82.95;32.03;;;;;;;2.82;70.15;99037.97;1693950;84;21176;-90
2020/12/03 14:06:05;;;;;;;97.10;35.17;;;;;;;2.74;70.45;99037.08;1688687;84;21189;-90
2020/12/03 14:08:32;;;;;;;88.00;36.08;;;;;;;2.67;70.68;99037.48;1685051;84;21199;-90
2020/12/03 14:11:00;;;;;;;217.40;78.22;;;;;;;2.64;70.90;99041.73;1688963;84;21628;-92
2020/12/03 14:13:27;;;;;;;98.15;40.40;;;;;;;2.61;70.95;99033.59;1677734;84;21218;-91
2020/12/03 14:15:54;;;;;;;93.10;38.00;;;;;;;2.54;71.29;99033.11;1687550;84;21187;-89
2020/12/03 14:18:22;;;;;;;95.75;38.65;;;;;;;2.49;71.38;99028.39;1679292;84;21208;-89
2020/12/03 14:20:49;;;;;;;92.30;33.55;;;;;;;2.37;71.67;99036.44;1680008;84;21186;-90
2020/12/03 14:23:16;;;;;;;92.37;33.33;;;;;;;2.28;71.91;99031.23;1680648;84;21189;-93
2020/12/03 14:25:44;;;;;;;92.72;34.53;;;;;;;2.23;71.99;99031.64;1694013;82;21255;-88
2020/12/03 14:28:12;;;;;;;99.37;35.15;;;;;;;2.19;72.19;99038.44;1691354;83;21291;-87
2020/12/03 14:30:39;;;;;;;97.72;34.98;;;;;;;2.12;72.31;99028.97;1700043;84;21282;-86
2020/12/03 14:33:07;;;;;;;99.65;34.48;;;;;;;2.04;72.63;99028.05;1694565;84;21151;-86
2020/12/03 14:35:35;;;;;;;93.30;34.05;;;;;;;1.96;73.05;99022.01;1732180;80;21323;-84
2020/12/03 14:38:02;;;;;;;101.58;35.40;;;;;;;1.86;72.82;99025.34;1712145;82;21304;-89
2020/12/03 14:40:30;;;;;;;95.83;39.35;;;;;;;1.77;73.23;99021.86;1694444;83;21300;-89
2020/12/03 14:42:58;;;;;;;104.72;37.80;;;;;;;1.69;73.17;99031.58;1724400;81;21343;-89
2020/12/03 15:06:53;;;;;;;99.13;31.93;;;;;;;0.70;75.25;99007.88;1740794;79;21261;-77
2020/12/03 15:09:22;;;;;;;81.95;27.75;;;;;;;0.59;75.52;98993.21;1672208;82;21130;-80
2020/12/03 15:11:55;;;;;;;89.90;31.93;;;;;;;0.53;74.95;98989.30;1702671;80;21287;31
2020/12/03 15:14:23;;;;;;;99.10;28.17;;;;;;;0.47;75.08;98998.17;1689466;82;21263;-83
2020/12/03 15:17:14;;;;;;;109.37;35.05;;;;;;;0.23;75.74;98968.00;1713401;80;21287;-79
2020/12/03 15:52:05;;;;;;;105.17;38.13;;;;;;;-0.33;78.07;98965.44;1732983;79;21129;-79
2020/12/03 16:24:18;;;;;;;115.35;41.92;;;;;;;-0.90;79.08;98937.21;1701047;80;21207;-79
2020/12/03 16:32:54;;;;;;;133.47;51.95;;;;;;;-0.96;79.22;98947.31;1648654;87;21138;-80